Terminal Aerodrome Forecast
Issued by NWS

Home | Current Version | Previous Version | Text Only | Print | Product List | Glossary On
Versions: 1 2 3 4 5 6 7 8 9 10 11
000
FTUS45 KABQ 272300 RRA
TAFGUP
TAF
KGUP 272341Z 2800/2824 VRB06KT P6SM SKC
     FM280700 VRB06KT P6SM SCT150 BKN200
     FM282000 23008KT P6SM SCT150 SCT250=

USA.gov is the U.S. government's official web portal to all federal, state and local government web resources and services.